sensor_id;sensor_type;location;lat;lon;timestamp;temperature;humidity
12276;DHT22;6200;48.144;11.424;2022-09-20T00:00:27;10.00;99.90
12276;DHT22;6200;48.144;11.424;2022-09-20T00:02:53;9.90;99.90
12276;DHT22;6200;48.144;11.424;2022-09-20T00:05:18;10.00;99.90
12276;DHT22;6200;48.144;11.424;2022-09-20T00:07:44;9.90;99.90
12276;DHT22;6200;48.144;11.424;2022-09-20T00:10:10;10.00;99.90
12276;DHT22;6200;48.144;11.424;2022-09-20T00:12:36;10.00;99.90
12276;DHT22;6200;48.144;11.424;2022-09-20T00:15:02;9.90;99.90
12276;DHT22;6200;48.144;11.424;2022-09-20T00:17:27;9.90;99.90
12276;DHT22;6200;48.144;11.424;2022-09-20T00:19:53;9.90;99.90
12276;DHT22;6200;48.144;11.424;2022-09-20T00:22:18;10.00;99.90
12276;DHT22;6200;48.144;11.424;2022-09-20T00:24:44;9.90;99.90
12276;DHT22;6200;48.144;11.424;2022-09-20T00:27:09;9.90;99.90
12276;DHT22;6200;48.144;11.424;2022-09-20T00:29:35;9.90;99.90
12276;DHT22;6200;48.144;11.424;2022-09-20T00:32:01;9.90;99.90
12276;DHT22;6200;48.144;11.424;2022-09-20T00:34:26;9.80;99.90
12276;DHT22;6200;48.144;11.424;2022-09-20T00:37:10;9.90;99.90
12276;DHT22;6200;48.144;11.424;2022-09-20T00:39:36;9.80;99.90
12276;DHT22;6200;48.144;11.424;2022-09-20T00:42:01;9.80;99.90
12276;DHT22;6200;48.144;11.424;2022-09-20T00:49:56;9.90;99.90
12276;DHT22;6200;48.144;11.424;2022-09-20T00:52:24;9.90;99.90
12276;DHT22;6200;48.144;11.424;2022-09-20T00:54:51;9.90;99.90
12276;DHT22;6200;48.144;11.424;2022-09-20T00:57:18;9.90;99.90
12276;DHT22;6200;48.144;11.424;2022-09-20T00:59:45;9.90;99.90
12276;DHT22;6200;48.144;11.424;2022-09-20T01:02:25;9.90;99.90
12276;DHT22;6200;48.144;11.424;2022-09-20T01:04:52;9.80;99.90
12276;DHT22;6200;48.144;11.424;2022-09-20T01:07:21;9.90;99.90
12276;DHT22;6200;48.144;11.424;2022-09-20T01:09:47;9.80;99.90
12276;DHT22;6200;48.144;11.424;2022-09-20T01:12:17;9.80;99.90
12276;DHT22;6200;48.144;11.424;2022-09-20T01:14:44;9.80;99.90
12276;DHT22;6200;48.144;11.424;2022-09-20T01:17:11;9.80;99.90
12276;DHT22;6200;48.144;11.424;2022-09-20T01:22:20;9.80;99.90
12276;DHT22;6200;48.144;11.424;2022-09-20T01:30:07;9.80;99.90
12276;DHT22;6200;48.144;11.424;2022-09-20T01:33:03;9.70;99.90
12276;DHT22;6200;48.144;11.424;2022-09-20T01:35:32;9.70;99.90
12276;DHT22;6200;48.144;11.424;2022-09-20T01:41:22;9.70;99.90
12276;DHT22;6200;48.144;11.424;2022-09-20T01:46:33;9.80;99.90
12276;DHT22;6200;48.144;11.424;2022-09-20T01:49:23;10.10;99.90
12276;DHT22;6200;48.144;11.424;2022-09-20T01:52:30;9.70;99.90
12276;DHT22;6200;48.144;11.424;2022-09-20T01:58:21;9.70;99.90
12276;DHT22;6200;48.144;11.424;2022-09-20T02:12:10;9.60;99.90
12276;DHT22;6200;48.144;11.424;2022-09-20T02:15:07;9.60;99.90
12276;DHT22;6200;48.144;11.424;2022-09-20T02:17:54;9.60;99.90
12276;DHT22;6200;48.144;11.424;2022-09-20T02:20:32;9.60;99.90
12276;DHT22;6200;48.144;11.424;2022-09-20T02:26:04;9.50;99.90
12276;DHT22;6200;48.144;11.424;2022-09-20T02:28:37;9.60;99.90
12276;DHT22;6200;48.144;11.424;2022-09-20T02:34:24;9.60;99.90
12276;DHT22;6200;48.144;11.424;2022-09-20T02:37:18;9.50;99.90
12276;DHT22;6200;48.144;11.424;2022-09-20T02:40:33;9.50;99.90
12276;DHT22;6200;48.144;11.424;2022-09-20T02:43:37;9.50;99.90
12276;DHT22;6200;48.144;11.424;2022-09-20T02:46:29;9.50;99.90
12276;DHT22;6200;48.144;11.424;2022-09-20T02:49:18;9.50;99.90
12276;DHT22;6200;48.144;11.424;2022-09-20T02:52:15;9.50;99.90
12276;DHT22;6200;48.144;11.424;2022-09-20T02:55:12;9.50;99.90
12276;DHT22;6200;48.144;11.424;2022-09-20T02:57:51;9.50;99.90
12276;DHT22;6200;48.144;11.424;2022-09-20T03:00:19;9.50;99.90
12276;DHT22;6200;48.144;11.424;2022-09-20T03:02:54;9.50;99.90
12276;DHT22;6200;48.144;11.424;2022-09-20T03:11:02;9.50;99.90
12276;DHT22;6200;48.144;11.424;2022-09-20T03:13:46;9.50;99.90
12276;DHT22;6200;48.144;11.424;2022-09-20T03:16:39;9.50;99.90
12276;DHT22;6200;48.144;11.424;2022-09-20T03:22:17;9.50;99.90
12276;DHT22;6200;48.144;11.424;2022-09-20T03:27:49;9.50;99.90
12276;DHT22;6200;48.144;11.424;2022-09-20T03:30:50;9.50;99.90
12276;DHT22;6200;48.144;11.424;2022-09-20T03:36:42;9.50;99.90
12276;DHT22;6200;48.144;11.424;2022-09-20T03:39:29;9.40;99.90
12276;DHT22;6200;48.144;11.424;2022-09-20T04:05:04;9.30;99.90
12276;DHT22;6200;48.144;11.424;2022-09-20T04:07:51;9.30;99.90
12276;DHT22;6200;48.144;11.424;2022-09-20T04:10:35;9.30;99.90
12276;DHT22;6200;48.144;11.424;2022-09-20T04:18:50;9.20;99.90
12276;DHT22;6200;48.144;11.424;2022-09-20T04:21:55;9.20;99.90
12276;DHT22;6200;48.144;11.424;2022-09-20T04:24:41;9.30;99.90
12276;DHT22;6200;48.144;11.424;2022-09-20T04:27:39;9.20;99.90
12276;DHT22;6200;48.144;11.424;2022-09-20T04:30:24;9.30;99.90
12276;DHT22;6200;48.144;11.424;2022-09-20T04:32:59;9.20;99.90
12276;DHT22;6200;48.144;11.424;2022-09-20T04:36:04;9.20;99.90
12276;DHT22;6200;48.144;11.424;2022-09-20T04:42:19;9.20;99.90
12276;DHT22;6200;48.144;11.424;2022-09-20T04:48:11;9.10;99.90
12276;DHT22;6200;48.144;11.424;2022-09-20T05:08:20;9.20;99.90
12276;DHT22;6200;48.144;11.424;2022-09-20T05:28:47;9.20;99.90
12276;DHT22;6200;48.144;11.424;2022-09-20T05:34:16;9.20;99.90
12276;DHT22;6200;48.144;11.424;2022-09-20T05:37:07;9.30;99.90
12276;DHT22;6200;48.144;11.424;2022-09-20T05:39:40;9.30;99.90
12276;DHT22;6200;48.144;11.424;2022-09-20T05:42:47;9.30;99.90
12276;DHT22;6200;48.144;11.424;2022-09-20T05:51:25;9.30;99.90
12276;DHT22;6200;48.144;11.424;2022-09-20T05:54:06;9.30;99.90
12276;DHT22;6200;48.144;11.424;2022-09-20T06:05:10;9.50;99.90
12276;DHT22;6200;48.144;11.424;2022-09-20T06:10:29;9.50;99.90
12276;DHT22;6200;48.144;11.424;2022-09-20T06:16:04;9.60;99.90
12276;DHT22;6200;48.144;11.424;2022-09-20T06:18:42;9.60;99.90
12276;DHT22;6200;48.144;11.424;2022-09-20T06:21:34;9.60;99.90
12276;DHT22;6200;48.144;11.424;2022-09-20T06:24:57;9.60;99.90
12276;DHT22;6200;48.144;11.424;2022-09-20T06:26:59;9.70;99.90
12276;DHT22;6200;48.144;11.424;2022-09-20T06:29:33;9.80;99.90
12276;DHT22;6200;48.144;11.424;2022-09-20T06:32:00;9.80;99.90
12276;DHT22;6200;48.144;11.424;2022-09-20T06:34:26;9.80;99.90
12276;DHT22;6200;48.144;11.424;2022-09-20T06:37:29;9.80;99.90
12276;DHT22;6200;48.144;11.424;2022-09-20T06:40:33;9.80;99.90
12276;DHT22;6200;48.144;11.424;2022-09-20T06:43:19;9.90;99.90
12276;DHT22;6200;48.144;11.424;2022-09-20T06:45:45;9.90;99.90
12276;DHT22;6200;48.144;11.424;2022-09-20T06:48:12;9.90;99.90
12276;DHT22;6200;48.144;11.424;2022-09-20T06:50:39;10.00;99.90
12276;DHT22;6200;48.144;11.424;2022-09-20T06:53:16;10.00;99.90
12276;DHT22;6200;48.144;11.424;2022-09-20T06:55:43;10.00;99.90
12276;DHT22;6200;48.144;11.424;2022-09-20T06:58:09;10.10;99.90
12276;DHT22;6200;48.144;11.424;2022-09-20T07:00:35;10.20;99.90
12276;DHT22;6200;48.144;11.424;2022-09-20T07:03:01;10.30;99.90
12276;DHT22;6200;48.144;11.424;2022-09-20T07:05:26;10.30;99.90
12276;DHT22;6200;48.144;11.424;2022-09-20T07:07:59;10.30;99.90
12276;DHT22;6200;48.144;11.424;2022-09-20T07:10:26;10.40;99.90
12276;DHT22;6200;48.144;11.424;2022-09-20T07:12:58;10.40;99.90
12276;DHT22;6200;48.144;11.424;2022-09-20T07:15:25;10.50;99.90
12276;DHT22;6200;48.144;11.424;2022-09-20T07:17:51;10.50;99.90
12276;DHT22;6200;48.144;11.424;2022-09-20T07:20:17;10.60;99.90
12276;DHT22;6200;48.144;11.424;2022-09-20T07:22:44;10.60;99.90
12276;DHT22;6200;48.144;11.424;2022-09-20T07:25:10;10.70;99.90
12276;DHT22;6200;48.144;11.424;2022-09-20T07:27:35;10.70;99.90
12276;DHT22;6200;48.144;11.424;2022-09-20T07:30:01;10.80;99.90
12276;DHT22;6200;48.144;11.424;2022-09-20T07:32:26;10.80;99.90
12276;DHT22;6200;48.144;11.424;2022-09-20T07:34:52;10.80;99.90
12276;DHT22;6200;48.144;11.424;2022-09-20T07:37:18;10.80;99.90
12276;DHT22;6200;48.144;11.424;2022-09-20T07:39:44;10.80;99.90
12276;DHT22;6200;48.144;11.424;2022-09-20T07:42:10;10.80;99.90
12276;DHT22;6200;48.144;11.424;2022-09-20T07:44:36;10.80;99.90
12276;DHT22;6200;48.144;11.424;2022-09-20T07:47:05;10.80;99.90
12276;DHT22;6200;48.144;11.424;2022-09-20T07:49:30;10.70;99.90
12276;DHT22;6200;48.144;11.424;2022-09-20T07:51:56;10.80;99.90
12276;DHT22;6200;48.144;11.424;2022-09-20T07:54:22;10.80;99.90
12276;DHT22;6200;48.144;11.424;2022-09-20T07:56:47;10.80;99.90
12276;DHT22;6200;48.144;11.424;2022-09-20T07:59:13;10.80;99.90
12276;DHT22;6200;48.144;11.424;2022-09-20T08:01:40;10.80;99.90
12276;DHT22;6200;48.144;11.424;2022-09-20T08:04:07;10.80;99.90
12276;DHT22;6200;48.144;11.424;2022-09-20T08:06:38;10.80;99.90
12276;DHT22;6200;48.144;11.424;2022-09-20T08:09:05;10.80;99.90
12276;DHT22;6200;48.144;11.424;2022-09-20T08:11:31;10.80;99.90
12276;DHT22;6200;48.144;11.424;2022-09-20T08:13:58;10.90;99.90
12276;DHT22;6200;48.144;11.424;2022-09-20T08:16:25;10.90;99.90
12276;DHT22;6200;48.144;11.424;2022-09-20T08:18:54;10.90;99.90
12276;DHT22;6200;48.144;11.424;2022-09-20T08:21:22;10.90;99.90
12276;DHT22;6200;48.144;11.424;2022-09-20T08:23:48;11.00;99.90
12276;DHT22;6200;48.144;11.424;2022-09-20T08:26:17;11.00;99.90
12276;DHT22;6200;48.144;11.424;2022-09-20T08:28:43;11.00;99.90
12276;DHT22;6200;48.144;11.424;2022-09-20T08:31:15;11.10;99.90
12276;DHT22;6200;48.144;11.424;2022-09-20T08:33:41;11.10;99.90
12276;DHT22;6200;48.144;11.424;2022-09-20T08:36:14;11.20;99.90
12276;DHT22;6200;48.144;11.424;2022-09-20T08:38:40;11.30;99.90
12276;DHT22;6200;48.144;11.424;2022-09-20T08:43:43;11.50;99.90
12276;DHT22;6200;48.144;11.424;2022-09-20T08:46:15;11.60;99.90
12276;DHT22;6200;48.144;11.424;2022-09-20T08:48:41;11.70;99.90
12276;DHT22;6200;48.144;11.424;2022-09-20T08:51:12;11.80;99.90
12276;DHT22;6200;48.144;11.424;2022-09-20T08:53:46;12.00;99.90
12276;DHT22;6200;48.144;11.424;2022-09-20T08:56:12;12.00;99.90
12276;DHT22;6200;48.144;11.424;2022-09-20T08:58:37;12.10;99.90
12276;DHT22;6200;48.144;11.424;2022-09-20T09:01:04;12.20;99.90
12276;DHT22;6200;48.144;11.424;2022-09-20T09:03:31;12.40;99.90
12276;DHT22;6200;48.144;11.424;2022-09-20T09:05:58;12.40;99.90
12276;DHT22;6200;48.144;11.424;2022-09-20T09:08:32;12.40;99.90
12276;DHT22;6200;48.144;11.424;2022-09-20T09:11:04;12.40;99.90
12276;DHT22;6200;48.144;11.424;2022-09-20T09:13:36;12.30;99.90
12276;DHT22;6200;48.144;11.424;2022-09-20T09:16:08;12.20;99.90
12276;DHT22;6200;48.144;11.424;2022-09-20T09:18:37;12.20;99.90
12276;DHT22;6200;48.144;11.424;2022-09-20T09:21:05;12.30;99.90
12276;DHT22;6200;48.144;11.424;2022-09-20T09:23:53;12.30;99.90
12276;DHT22;6200;48.144;11.424;2022-09-20T09:26:25;12.40;99.90
12276;DHT22;6200;48.144;11.424;2022-09-20T09:29:08;12.70;99.90
12276;DHT22;6200;48.144;11.424;2022-09-20T09:31:34;13.00;99.90
12276;DHT22;6200;48.144;11.424;2022-09-20T09:34:01;13.20;99.90
12276;DHT22;6200;48.144;11.424;2022-09-20T09:36:27;13.20;99.90
12276;DHT22;6200;48.144;11.424;2022-09-20T09:39:27;13.20;99.90
12276;DHT22;6200;48.144;11.424;2022-09-20T09:41:54;13.10;99.90
12276;DHT22;6200;48.144;11.424;2022-09-20T09:44:23;12.90;99.90
12276;DHT22;6200;48.144;11.424;2022-09-20T09:46:50;12.80;99.90
12276;DHT22;6200;48.144;11.424;2022-09-20T09:52:15;12.80;99.90
12276;DHT22;6200;48.144;11.424;2022-09-20T09:54:53;12.80;99.90
12276;DHT22;6200;48.144;11.424;2022-09-20T09:57:50;12.90;99.90
12276;DHT22;6200;48.144;11.424;2022-09-20T10:00:21;13.00;99.90
12276;DHT22;6200;48.144;11.424;2022-09-20T10:03:04;13.10;99.90
12276;DHT22;6200;48.144;11.424;2022-09-20T10:11:35;13.20;99.90
12276;DHT22;6200;48.144;11.424;2022-09-20T10:14:34;13.20;99.90
12276;DHT22;6200;48.144;11.424;2022-09-20T10:17:15;13.10;99.90
12276;DHT22;6200;48.144;11.424;2022-09-20T10:20:08;13.10;99.90
12276;DHT22;6200;48.144;11.424;2022-09-20T10:23:03;13.10;99.90
12276;DHT22;6200;48.144;11.424;2022-09-20T10:31:23;13.10;99.90
12276;DHT22;6200;48.144;11.424;2022-09-20T10:36:58;13.10;99.90
12276;DHT22;6200;48.144;11.424;2022-09-20T10:41:59;13.00;99.90
12276;DHT22;6200;48.144;11.424;2022-09-20T10:45:19;13.00;99.90
12276;DHT22;6200;48.144;11.424;2022-09-20T10:48:11;12.90;99.90
12276;DHT22;6200;48.144;11.424;2022-09-20T10:50:50;12.90;99.90
12276;DHT22;6200;48.144;11.424;2022-09-20T10:53:27;12.80;99.90
12276;DHT22;6200;48.144;11.424;2022-09-20T10:58:41;12.80;99.90
12276;DHT22;6200;48.144;11.424;2022-09-20T11:01:19;12.90;99.90
12276;DHT22;6200;48.144;11.424;2022-09-20T11:09:16;13.70;99.90
12276;DHT22;6200;48.144;11.424;2022-09-20T11:11:47;14.20;99.90
12276;DHT22;6200;48.144;11.424;2022-09-20T11:14:26;14.70;99.90
12276;DHT22;6200;48.144;11.424;2022-09-20T11:17:01;15.10;99.90
12276;DHT22;6200;48.144;11.424;2022-09-20T11:19:52;15.70;99.90
12276;DHT22;6200;48.144;11.424;2022-09-20T11:22:26;16.30;99.90
12276;DHT22;6200;48.144;11.424;2022-09-20T11:24:59;16.50;99.90
12276;DHT22;6200;48.144;11.424;2022-09-20T11:27:38;16.80;99.90
12276;DHT22;6200;48.144;11.424;2022-09-20T11:30:18;16.90;99.90
12276;DHT22;6200;48.144;11.424;2022-09-20T11:35:41;16.60;97.50
12276;DHT22;6200;48.144;11.424;2022-09-20T11:38:22;16.60;99.90
12276;DHT22;6200;48.144;11.424;2022-09-20T11:40:54;16.50;99.30
12276;DHT22;6200;48.144;11.424;2022-09-20T11:43:22;16.40;96.70
12276;DHT22;6200;48.144;11.424;2022-09-20T11:45:55;16.20;96.50
12276;DHT22;6200;48.144;11.424;2022-09-20T11:48:29;16.30;97.00
12276;DHT22;6200;48.144;11.424;2022-09-20T11:54:10;16.30;97.70
12276;DHT22;6200;48.144;11.424;2022-09-20T11:56:40;16.40;97.50
12276;DHT22;6200;48.144;11.424;2022-09-20T11:59:34;16.50;96.70
12276;DHT22;6200;48.144;11.424;2022-09-20T12:02:04;16.70;94.80
12276;DHT22;6200;48.144;11.424;2022-09-20T12:04:37;16.90;94.50
12276;DHT22;6200;48.144;11.424;2022-09-20T12:09:42;17.40;95.60
12276;DHT22;6200;48.144;11.424;2022-09-20T12:14:54;17.40;93.30
12276;DHT22;6200;48.144;11.424;2022-09-20T12:28:42;17.20;92.50
12276;DHT22;6200;48.144;11.424;2022-09-20T12:36:32;16.90;93.30
12276;DHT22;6200;48.144;11.424;2022-09-20T12:41:47;16.90;93.40
12276;DHT22;6200;48.144;11.424;2022-09-20T13:01:26;17.60;92.30
12276;DHT22;6200;48.144;11.424;2022-09-20T13:03:46;17.80;90.60
12276;DHT22;6200;48.144;11.424;2022-09-20T13:11:39;17.70;89.60
12276;DHT22;6200;48.144;11.424;2022-09-20T13:16:53;17.50;88.20
12276;DHT22;6200;48.144;11.424;2022-09-20T13:19:22;17.40;88.70
12276;DHT22;6200;48.144;11.424;2022-09-20T13:24:30;17.30;87.30
12276;DHT22;6200;48.144;11.424;2022-09-20T13:27:02;17.30;88.40
12276;DHT22;6200;48.144;11.424;2022-09-20T13:29:38;17.40;90.70
12276;DHT22;6200;48.144;11.424;2022-09-20T13:34:39;18.00;87.00
12276;DHT22;6200;48.144;11.424;2022-09-20T13:37:16;18.30;88.40
12276;DHT22;6200;48.144;11.424;2022-09-20T13:39:45;18.40;88.30
12276;DHT22;6200;48.144;11.424;2022-09-20T13:42:14;18.40;86.60
12276;DHT22;6200;48.144;11.424;2022-09-20T13:44:41;18.30;87.20
12276;DHT22;6200;48.144;11.424;2022-09-20T13:47:28;18.20;84.50
12276;DHT22;6200;48.144;11.424;2022-09-20T13:52:59;17.90;86.20
12276;DHT22;6200;48.144;11.424;2022-09-20T13:58:16;17.40;87.80
12276;DHT22;6200;48.144;11.424;2022-09-20T14:00:47;17.20;86.60
12276;DHT22;6200;48.144;11.424;2022-09-20T14:03:17;17.00;87.50
12276;DHT22;6200;48.144;11.424;2022-09-20T14:05:49;16.80;87.70
12276;DHT22;6200;48.144;11.424;2022-09-20T14:08:27;16.80;87.50
12276;DHT22;6200;48.144;11.424;2022-09-20T14:11:27;16.70;89.90
12276;DHT22;6200;48.144;11.424;2022-09-20T14:13:58;16.60;89.90
12276;DHT22;6200;48.144;11.424;2022-09-20T14:16:28;16.10;90.10
12276;DHT22;6200;48.144;11.424;2022-09-20T14:18:56;16.50;89.50
12276;DHT22;6200;48.144;11.424;2022-09-20T14:21:24;16.50;87.70
12276;DHT22;6200;48.144;11.424;2022-09-20T14:26:40;16.40;90.30
12276;DHT22;6200;48.144;11.424;2022-09-20T14:35:14;16.30;86.50
12276;DHT22;6200;48.144;11.424;2022-09-20T14:37:49;16.00;87.50
12276;DHT22;6200;48.144;11.424;2022-09-20T14:42:49;15.80;89.70
12276;DHT22;6200;48.144;11.424;2022-09-20T14:45:23;15.70;90.10
12276;DHT22;6200;48.144;11.424;2022-09-20T14:47:58;15.60;89.40
12276;DHT22;6200;48.144;11.424;2022-09-20T14:50:33;15.40;91.40
12276;DHT22;6200;48.144;11.424;2022-09-20T14:53:06;15.30;91.40
12276;DHT22;6200;48.144;11.424;2022-09-20T14:56:05;15.30;92.30
12276;DHT22;6200;48.144;11.424;2022-09-20T14:58:32;15.30;91.50
12276;DHT22;6200;48.144;11.424;2022-09-20T15:01:22;15.20;90.40
12276;DHT22;6200;48.144;11.424;2022-09-20T15:03:48;15.10;90.60
12276;DHT22;6200;48.144;11.424;2022-09-20T15:06:15;15.10;90.00
12276;DHT22;6200;48.144;11.424;2022-09-20T15:08:41;15.10;90.70
12276;DHT22;6200;48.144;11.424;2022-09-20T15:11:12;15.10;90.60
12276;DHT22;6200;48.144;11.424;2022-09-20T15:13:38;15.00;91.30
12276;DHT22;6200;48.144;11.424;2022-09-20T15:16:04;15.00;91.00
12276;DHT22;6200;48.144;11.424;2022-09-20T15:18:36;15.00;92.00
12276;DHT22;6200;48.144;11.424;2022-09-20T15:21:04;15.00;90.90
12276;DHT22;6200;48.144;11.424;2022-09-20T15:23:30;15.00;91.20
12276;DHT22;6200;48.144;11.424;2022-09-20T15:25:56;14.90;90.70
12276;DHT22;6200;48.144;11.424;2022-09-20T15:28:21;14.80;91.60
12276;DHT22;6200;48.144;11.424;2022-09-20T15:30:49;14.70;92.10
12276;DHT22;6200;48.144;11.424;2022-09-20T15:33:15;14.70;91.70
12276;DHT22;6200;48.144;11.424;2022-09-20T15:35:42;14.70;91.30
12276;DHT22;6200;48.144;11.424;2022-09-20T15:38:08;14.60;91.40
12276;DHT22;6200;48.144;11.424;2022-09-20T15:40:38;14.60;91.30
12276;DHT22;6200;48.144;11.424;2022-09-20T15:43:05;14.60;91.20
12276;DHT22;6200;48.144;11.424;2022-09-20T15:45:34;14.60;92.60
12276;DHT22;6200;48.144;11.424;2022-09-20T15:47:59;14.50;92.50
12276;DHT22;6200;48.144;11.424;2022-09-20T15:50:25;14.50;93.00
12276;DHT22;6200;48.144;11.424;2022-09-20T15:52:51;14.50;92.20
12276;DHT22;6200;48.144;11.424;2022-09-20T15:55:17;14.50;91.90
12276;DHT22;6200;48.144;11.424;2022-09-20T15:57:44;14.40;93.10
12276;DHT22;6200;48.144;11.424;2022-09-20T16:00:10;14.40;92.20
12276;DHT22;6200;48.144;11.424;2022-09-20T16:02:36;14.40;93.10
12276;DHT22;6200;48.144;11.424;2022-09-20T16:05:01;14.30;93.20
12276;DHT22;6200;48.144;11.424;2022-09-20T16:07:28;14.30;92.50
12276;DHT22;6200;48.144;11.424;2022-09-20T16:09:54;14.30;93.40
12276;DHT22;6200;48.144;11.424;2022-09-20T16:12:24;14.20;93.00
12276;DHT22;6200;48.144;11.424;2022-09-20T16:14:49;14.20;93.90
12276;DHT22;6200;48.144;11.424;2022-09-20T16:17:16;14.20;93.20
12276;DHT22;6200;48.144;11.424;2022-09-20T16:19:42;14.20;93.50
12276;DHT22;6200;48.144;11.424;2022-09-20T16:22:12;14.10;93.50
12276;DHT22;6200;48.144;11.424;2022-09-20T16:24:38;14.10;93.90
12276;DHT22;6200;48.144;11.424;2022-09-20T16:27:06;14.00;93.20
12276;DHT22;6200;48.144;11.424;2022-09-20T16:29:32;14.00;93.60
12276;DHT22;6200;48.144;11.424;2022-09-20T16:31:59;13.90;94.80
12276;DHT22;6200;48.144;11.424;2022-09-20T16:34:31;13.90;94.80
12276;DHT22;6200;48.144;11.424;2022-09-20T16:36:59;13.80;94.40
12276;DHT22;6200;48.144;11.424;2022-09-20T16:39:26;13.80;94.60
12276;DHT22;6200;48.144;11.424;2022-09-20T16:41:54;13.70;95.70
12276;DHT22;6200;48.144;11.424;2022-09-20T16:44:21;13.70;96.10
12276;DHT22;6200;48.144;11.424;2022-09-20T16:46:47;13.60;95.80
12276;DHT22;6200;48.144;11.424;2022-09-20T16:49:15;13.60;95.90
12276;DHT22;6200;48.144;11.424;2022-09-20T16:51:42;13.50;95.20
12276;DHT22;6200;48.144;11.424;2022-09-20T16:54:10;13.50;95.90
12276;DHT22;6200;48.144;11.424;2022-09-20T16:56:37;13.50;95.50
12276;DHT22;6200;48.144;11.424;2022-09-20T16:59:04;13.50;95.90
12276;DHT22;6200;48.144;11.424;2022-09-20T17:01:30;13.30;96.30
12276;DHT22;6200;48.144;11.424;2022-09-20T17:03:56;13.30;96.90
12276;DHT22;6200;48.144;11.424;2022-09-20T17:06:23;13.20;97.60
12276;DHT22;6200;48.144;11.424;2022-09-20T17:08:54;13.20;97.20
12276;DHT22;6200;48.144;11.424;2022-09-20T17:11:24;13.20;97.60
12276;DHT22;6200;48.144;11.424;2022-09-20T17:13:52;13.00;97.80
12276;DHT22;6200;48.144;11.424;2022-09-20T17:16:23;12.90;98.40
12276;DHT22;6200;48.144;11.424;2022-09-20T17:19:09;12.90;98.90
12276;DHT22;6200;48.144;11.424;2022-09-20T17:21:40;12.80;98.50
12276;DHT22;6200;48.144;11.424;2022-09-20T17:24:08;12.80;98.70
12276;DHT22;6200;48.144;11.424;2022-09-20T17:26:39;12.70;99.30
12276;DHT22;6200;48.144;11.424;2022-09-20T17:29:07;12.70;99.40
12276;DHT22;6200;48.144;11.424;2022-09-20T17:31:36;12.70;99.50
12276;DHT22;6200;48.144;11.424;2022-09-20T17:34:04;12.60;99.90
12276;DHT22;6200;48.144;11.424;2022-09-20T17:36:34;12.60;99.00
12276;DHT22;6200;48.144;11.424;2022-09-20T17:39:01;12.60;99.90
12276;DHT22;6200;48.144;11.424;2022-09-20T17:41:28;12.60;99.20
12276;DHT22;6200;48.144;11.424;2022-09-20T17:43:55;12.60;99.50
12276;DHT22;6200;48.144;11.424;2022-09-20T17:46:30;12.70;99.90
12276;DHT22;6200;48.144;11.424;2022-09-20T17:48:58;12.60;99.90
12276;DHT22;6200;48.144;11.424;2022-09-20T17:51:30;12.50;99.90
12276;DHT22;6200;48.144;11.424;2022-09-20T17:53:56;12.50;99.90
12276;DHT22;6200;48.144;11.424;2022-09-20T17:56:22;12.40;99.90
12276;DHT22;6200;48.144;11.424;2022-09-20T17:59:00;12.50;99.90
12276;DHT22;6200;48.144;11.424;2022-09-20T18:01:28;12.40;99.90
12276;DHT22;6200;48.144;11.424;2022-09-20T18:03:56;12.30;99.90
12276;DHT22;6200;48.144;11.424;2022-09-20T18:07:05;12.30;99.90
12276;DHT22;6200;48.144;11.424;2022-09-20T18:09:16;12.30;99.90
12276;DHT22;6200;48.144;11.424;2022-09-20T18:11:47;12.20;99.90
12276;DHT22;6200;48.144;11.424;2022-09-20T18:14:15;12.30;99.90
12276;DHT22;6200;48.144;11.424;2022-09-20T18:16:41;12.20;99.90
12276;DHT22;6200;48.144;11.424;2022-09-20T18:19:08;12.20;99.90
12276;DHT22;6200;48.144;11.424;2022-09-20T18:21:35;12.20;99.90
12276;DHT22;6200;48.144;11.424;2022-09-20T18:24:04;12.10;99.90
12276;DHT22;6200;48.144;11.424;2022-09-20T18:26:30;12.10;99.90
12276;DHT22;6200;48.144;11.424;2022-09-20T18:29:02;12.10;99.90
12276;DHT22;6200;48.144;11.424;2022-09-20T18:31:36;12.00;99.90
12276;DHT22;6200;48.144;11.424;2022-09-20T18:34:07;12.00;99.90
12276;DHT22;6200;48.144;11.424;2022-09-20T18:36:35;12.00;99.90
12276;DHT22;6200;48.144;11.424;2022-09-20T18:39:04;12.00;99.90
12276;DHT22;6200;48.144;11.424;2022-09-20T18:41:32;11.90;99.90
12276;DHT22;6200;48.144;11.424;2022-09-20T18:43:59;11.90;99.90
12276;DHT22;6200;48.144;11.424;2022-09-20T18:46:26;11.90;99.90
12276;DHT22;6200;48.144;11.424;2022-09-20T18:48:52;11.90;99.90
12276;DHT22;6200;48.144;11.424;2022-09-20T18:51:18;11.90;99.90
12276;DHT22;6200;48.144;11.424;2022-09-20T18:53:44;11.90;99.90
12276;DHT22;6200;48.144;11.424;2022-09-20T18:56:25;11.90;99.90
12276;DHT22;6200;48.144;11.424;2022-09-20T18:58:54;11.90;99.90
12276;DHT22;6200;48.144;11.424;2022-09-20T19:09:41;12.00;99.90
12276;DHT22;6200;48.144;11.424;2022-09-20T19:12:32;11.90;99.90
12276;DHT22;6200;48.144;11.424;2022-09-20T19:25:39;11.80;99.90
12276;DHT22;6200;48.144;11.424;2022-09-20T19:28:09;11.70;99.90
12276;DHT22;6200;48.144;11.424;2022-09-20T19:30:36;11.70;99.90
12276;DHT22;6200;48.144;11.424;2022-09-20T19:33:04;11.70;99.90
12276;DHT22;6200;48.144;11.424;2022-09-20T19:35:34;11.70;99.90
12276;DHT22;6200;48.144;11.424;2022-09-20T19:38:34;11.60;99.90
12276;DHT22;6200;48.144;11.424;2022-09-20T19:41:23;11.60;99.90
12276;DHT22;6200;48.144;11.424;2022-09-20T19:44:08;11.60;99.90
12276;DHT22;6200;48.144;11.424;2022-09-20T19:52:52;11.50;99.90
12276;DHT22;6200;48.144;11.424;2022-09-20T19:55:18;11.50;99.90
12276;DHT22;6200;48.144;11.424;2022-09-20T19:57:45;11.50;99.90
12276;DHT22;6200;48.144;11.424;2022-09-20T20:00:13;11.50;99.90
12276;DHT22;6200;48.144;11.424;2022-09-20T20:02:42;11.50;99.90
12276;DHT22;6200;48.144;11.424;2022-09-20T20:05:17;11.40;99.90
12276;DHT22;6200;48.144;11.424;2022-09-20T20:13:17;11.40;99.90
12276;DHT22;6200;48.144;11.424;2022-09-20T20:16:08;11.40;99.90
12276;DHT22;6200;48.144;11.424;2022-09-20T20:22:01;11.40;99.90
12276;DHT22;6200;48.144;11.424;2022-09-20T20:24:38;11.40;99.90
12276;DHT22;6200;48.144;11.424;2022-09-20T20:27:06;11.40;99.90
12276;DHT22;6200;48.144;11.424;2022-09-20T20:29:31;11.40;99.90
12276;DHT22;6200;48.144;11.424;2022-09-20T20:31:57;11.40;99.90
12276;DHT22;6200;48.144;11.424;2022-09-20T20:34:22;11.30;99.90
12276;DHT22;6200;48.144;11.424;2022-09-20T20:36:48;11.30;99.90
12276;DHT22;6200;48.144;11.424;2022-09-20T20:39:14;11.30;99.90
12276;DHT22;6200;48.144;11.424;2022-09-20T20:41:40;11.30;99.90
12276;DHT22;6200;48.144;11.424;2022-09-20T20:44:07;11.10;99.90
12276;DHT22;6200;48.144;11.424;2022-09-20T20:46:32;11.10;99.90
12276;DHT22;6200;48.144;11.424;2022-09-20T20:49:00;11.10;99.90
12276;DHT22;6200;48.144;11.424;2022-09-20T20:51:26;11.00;99.90
12276;DHT22;6200;48.144;11.424;2022-09-20T20:53:53;11.00;99.90
12276;DHT22;6200;48.144;11.424;2022-09-20T20:56:27;10.90;99.90
12276;DHT22;6200;48.144;11.424;2022-09-20T20:58:54;10.90;99.90
12276;DHT22;6200;48.144;11.424;2022-09-20T21:01:33;10.80;99.90